Time;durP1;ratioP1;P1;durP2;ratioP2;P2;SDS_P1;SDS_P2;PMS_P1;PMS_P2;Temp;Humidity;BMP_temperature;BMP_pressure;BME280_temperature;BME280_humidity;BME280_pressure;Samples;Min_cycle;Max_cycle;Signal;HPM_P1;HPM_P2
2021/10/01 00:01:23;;;;;;;10.60;6.47;;;;;;;;;;4883284;28;20277;-68
2021/10/01 00:03:48;;;;;;;11.40;6.30;;;;;;;;;;4886540;28;20299;-67
2021/10/01 00:06:13;;;;;;;10.83;6.37;;;;;;;;;;4889545;28;20043;-68
2021/10/01 00:08:39;;;;;;;11.07;6.30;;;;;;;;;;4888968;28;24343;-68
2021/10/01 00:11:04;;;;;;;10.80;6.15;;;;;;;;;;4885783;28;20041;-68
2021/10/01 00:13:29;;;;;;;10.57;6.85;;;;;;;;;;4890790;28;20582;-68
2021/10/01 00:15:55;;;;;;;11.57;6.60;;;;;;;;;;4884997;28;20121;-68
2021/10/01 00:18:20;;;;;;;10.68;6.32;;;;;;;;;;4899225;28;21092;-68
2021/10/01 00:20:46;;;;;;;12.07;6.25;;;;;;;;;;4904339;28;20036;-67
2021/10/01 00:23:11;;;;;;;13.32;6.40;;;;;;;;;;4886390;28;20030;-68
2021/10/01 00:25:36;;;;;;;9.83;6.57;;;;;;;;;;4886256;28;20507;-65
2021/10/01 00:28:03;;;;;;;11.40;6.20;;;;;;;;;;4887630;28;20983;-66
2021/10/01 00:30:28;;;;;;;12.55;6.28;;;;;;;;;;4889847;28;20087;-67
2021/10/01 00:32:53;;;;;;;9.88;6.22;;;;;;;;;;4889505;28;20030;-68
2021/10/01 00:35:19;;;;;;;12.05;6.53;;;;;;;;;;4901468;28;20021;-67
2021/10/01 00:37:45;;;;;;;8.75;5.72;;;;;;;;;;4886824;28;20155;-68
2021/10/01 00:40:11;;;;;;;10.73;5.70;;;;;;;;;;4891328;28;20559;-68
2021/10/01 00:42:36;;;;;;;10.77;5.85;;;;;;;;;;4891573;28;20030;-68
2021/10/01 00:45:01;;;;;;;8.70;5.65;;;;;;;;;;4891839;28;20033;-68
2021/10/01 00:47:27;;;;;;;11.70;6.07;;;;;;;;;;4885845;28;20088;-68
2021/10/01 00:49:52;;;;;;;9.45;5.40;;;;;;;;;;4893219;28;20040;-68
2021/10/01 00:52:18;;;;;;;9.90;6.20;;;;;;;;;;4887345;28;20029;-67
2021/10/01 00:54:44;;;;;;;12.43;5.63;;;;;;;;;;4882852;28;20665;-67
2021/10/01 00:57:10;;;;;;;10.40;6.18;;;;;;;;;;4887265;28;20188;-68
2021/10/01 00:59:35;;;;;;;11.20;5.90;;;;;;;;;;4890752;28;20842;-67
2021/10/01 01:02:01;;;;;;;10.63;5.45;;;;;;;;;;4890858;28;20030;-67
2021/10/01 01:04:26;;;;;;;10.13;5.97;;;;;;;;;;4892437;28;20037;-68
2021/10/01 01:07:07;;;;;;;9.73;5.97;;;;;;;;;;4892895;28;20029;-68
2021/10/01 01:09:39;;;;;;;8.18;5.22;;;;;;;;;;4907828;28;20046;-68
2021/10/01 01:12:25;;;;;;;8.77;5.05;;;;;;;;;;4893125;28;20561;-68
2021/10/01 01:14:50;;;;;;;9.45;5.25;;;;;;;;;;4906991;28;20042;-68
2021/10/01 01:17:21;;;;;;;7.63;4.87;;;;;;;;;;4896104;28;20639;-68
2021/10/01 01:20:05;;;;;;;9.00;5.10;;;;;;;;;;4911183;28;20575;-68
2021/10/01 01:22:49;;;;;;;9.50;5.10;;;;;;;;;;4899496;28;20676;-68
2021/10/01 01:25:34;;;;;;;9.57;5.40;;;;;;;;;;4894505;28;21384;-68
2021/10/01 01:28:20;;;;;;;9.43;4.90;;;;;;;;;;4870459;28;20523;-69
2021/10/01 01:30:48;;;;;;;10.40;4.95;;;;;;;;;;4897919;28;20065;-68
2021/10/01 01:33:16;;;;;;;8.80;5.28;;;;;;;;;;4908851;28;20935;-68
2021/10/01 01:35:42;;;;;;;9.38;4.63;;;;;;;;;;4894272;28;20022;-68
2021/10/01 01:38:13;;;;;;;12.18;4.68;;;;;;;;;;4894400;28;20038;-69
2021/10/01 01:40:40;;;;;;;9.23;4.70;;;;;;;;;;4894794;28;20100;-68
2021/10/01 01:43:06;;;;;;;12.95;5.25;;;;;;;;;;4892276;28;20026;-68
2021/10/01 01:45:36;;;;;;;8.82;4.75;;;;;;;;;;4892157;28;21217;-68
2021/10/01 01:48:02;;;;;;;11.93;4.90;;;;;;;;;;4889426;28;20726;-68
2021/10/01 01:50:27;;;;;;;9.60;5.07;;;;;;;;;;4891432;28;20092;-68
2021/10/01 01:52:53;;;;;;;8.60;4.85;;;;;;;;;;4894796;28;20386;-68
2021/10/01 01:55:18;;;;;;;9.45;4.97;;;;;;;;;;4905526;28;20542;-68
2021/10/01 01:57:49;;;;;;;8.52;5.03;;;;;;;;;;4889645;28;20034;-66
2021/10/01 02:00:15;;;;;;;7.13;4.60;;;;;;;;;;4889408;28;20121;-66
2021/10/01 02:02:40;;;;;;;8.32;5.25;;;;;;;;;;4882854;28;20440;-68
2021/10/01 02:05:07;;;;;;;9.05;4.80;;;;;;;;;;4902368;28;20092;-67
2021/10/01 02:07:32;;;;;;;8.77;4.80;;;;;;;;;;4890703;28;20049;-67
2021/10/01 02:09:58;;;;;;;9.32;4.68;;;;;;;;;;4888341;28;20026;-66
2021/10/01 02:12:24;;;;;;;10.20;4.55;;;;;;;;;;4887196;28;20104;-67
2021/10/01 02:14:50;;;;;;;10.00;5.13;;;;;;;;;;4888670;28;20145;-68
2021/10/01 02:17:18;;;;;;;8.82;4.82;;;;;;;;;;4887881;28;20036;-68
2021/10/01 02:19:46;;;;;;;9.70;4.38;;;;;;;;;;4902089;28;21469;-66
2021/10/01 02:22:12;;;;;;;9.27;5.00;;;;;;;;;;4887075;28;20040;-68
2021/10/01 02:24:37;;;;;;;9.82;4.88;;;;;;;;;;4889269;28;20027;-69
2021/10/01 02:27:08;;;;;;;9.50;5.18;;;;;;;;;;4891771;28;20706;-66
2021/10/01 02:29:37;;;;;;;9.25;4.97;;;;;;;;;;4901145;28;20025;-66
2021/10/01 02:32:17;;;;;;;9.00;5.32;;;;;;;;;;4887933;28;20054;-66
2021/10/01 02:34:44;;;;;;;10.20;4.85;;;;;;;;;;4890835;28;20041;-67
2021/10/01 02:37:11;;;;;;;10.13;5.60;;;;;;;;;;4885671;28;20030;-70
2021/10/01 02:39:37;;;;;;;11.48;5.20;;;;;;;;;;4887693;28;23742;-68
2021/10/01 02:42:03;;;;;;;9.93;5.30;;;;;;;;;;4891065;28;20026;-68
2021/10/01 02:44:28;;;;;;;11.45;5.53;;;;;;;;;;4902756;28;20040;-67
2021/10/01 02:46:53;;;;;;;9.07;5.32;;;;;;;;;;4890595;28;20025;-67
2021/10/01 02:49:19;;;;;;;8.57;4.53;;;;;;;;;;4889918;28;20030;-68
2021/10/01 02:51:49;;;;;;;9.85;5.15;;;;;;;;;;4903518;28;20600;-69
2021/10/01 02:54:16;;;;;;;9.95;4.75;;;;;;;;;;4886239;28;20555;-67
2021/10/01 02:56:47;;;;;;;8.05;4.68;;;;;;;;;;4884574;28;20498;-68
2021/10/01 02:59:14;;;;;;;10.27;5.50;;;;;;;;;;4888435;28;20968;-67
2021/10/01 03:01:40;;;;;;;10.13;4.97;;;;;;;;;;4889325;28;20037;-66
2021/10/01 03:04:07;;;;;;;9.77;5.53;;;;;;;;;;4887911;28;20030;-67
2021/10/01 03:06:33;;;;;;;8.00;5.10;;;;;;;;;;4889486;28;20088;-67
2021/10/01 03:08:58;;;;;;;10.52;6.10;;;;;;;;;;4830132;28;1643941;-67
2021/10/01 03:11:25;;;;;;;11.13;6.13;;;;;;;;;;4900893;28;20422;-66
2021/10/01 03:13:51;;;;;;;9.60;5.80;;;;;;;;;;4890161;28;20042;-69
2021/10/01 03:16:17;;;;;;;9.50;5.47;;;;;;;;;;4886516;28;20771;-67
2021/10/01 03:18:42;;;;;;;9.93;6.45;;;;;;;;;;4902617;28;20029;-68
2021/10/01 03:21:08;;;;;;;9.80;6.13;;;;;;;;;;4887438;28;20030;-68
2021/10/01 03:23:34;;;;;;;10.18;5.63;;;;;;;;;;4887038;28;20354;-68
2021/10/01 03:25:59;;;;;;;9.60;5.75;;;;;;;;;;4901319;28;20026;-68
2021/10/01 03:28:25;;;;;;;9.57;5.50;;;;;;;;;;4889589;28;20030;-70
2021/10/01 03:30:51;;;;;;;11.18;5.28;;;;;;;;;;4889712;28;20105;-67
2021/10/01 03:33:16;;;;;;;9.30;5.28;;;;;;;;;;4886271;28;24493;-68
2021/10/01 03:35:42;;;;;;;9.38;5.88;;;;;;;;;;4883891;28;20204;-68
2021/10/01 03:38:12;;;;;;;9.32;5.57;;;;;;;;;;4889173;28;20779;-69
2021/10/01 03:40:37;;;;;;;10.18;6.10;;;;;;;;;;4885742;28;20036;-69
2021/10/01 03:43:03;;;;;;;9.32;5.60;;;;;;;;;;4902169;28;20030;-68
2021/10/01 03:45:28;;;;;;;8.55;5.18;;;;;;;;;;4886759;28;20036;-65
2021/10/01 03:47:54;;;;;;;8.13;5.43;;;;;;;;;;4884041;28;20038;-67
2021/10/01 03:50:20;;;;;;;9.55;5.95;;;;;;;;;;4887955;28;20060;-67
2021/10/01 03:52:45;;;;;;;9.40;5.35;;;;;;;;;;4885659;28;20042;-67
2021/10/01 03:55:14;;;;;;;9.43;5.23;;;;;;;;;;4888209;28;20587;-67
2021/10/01 03:57:39;;;;;;;7.95;5.00;;;;;;;;;;4884221;28;20444;-68
2021/10/01 04:00:05;;;;;;;10.43;4.95;;;;;;;;;;4891168;28;20034;-66
2021/10/01 04:02:31;;;;;;;8.63;5.20;;;;;;;;;;4885604;28;20305;-69
2021/10/01 04:04:56;;;;;;;7.82;5.10;;;;;;;;;;4899251;28;20565;-67
2021/10/01 04:07:21;;;;;;;9.33;5.03;;;;;;;;;;4883495;28;21736;-68
2021/10/01 04:09:47;;;;;;;9.65;5.57;;;;;;;;;;4889772;28;20378;-67
2021/10/01 04:12:12;;;;;;;8.35;5.07;;;;;;;;;;4888896;28;20874;-65
2021/10/01 04:14:37;;;;;;;10.90;5.70;;;;;;;;;;4886492;28;20522;-66
2021/10/01 04:17:03;;;;;;;8.53;4.77;;;;;;;;;;4887857;28;20263;-67
2021/10/01 04:19:28;;;;;;;9.70;5.32;;;;;;;;;;4886710;28;20338;-68
2021/10/01 04:21:53;;;;;;;9.30;5.57;;;;;;;;;;4884567;28;20088;-66
2021/10/01 04:24:19;;;;;;;8.48;5.43;;;;;;;;;;4883703;28;20355;-68
2021/10/01 04:26:44;;;;;;;10.60;5.60;;;;;;;;;;4889203;28;20499;-67
2021/10/01 04:29:09;;;;;;;11.73;5.90;;;;;;;;;;4889369;28;24396;-68
2021/10/01 04:31:35;;;;;;;9.80;4.95;;;;;;;;;;4888625;28;20076;-68
2021/10/01 04:34:01;;;;;;;8.88;5.15;;;;;;;;;;4885210;28;23605;-68
2021/10/01 04:36:26;;;;;;;10.50;5.30;;;;;;;;;;4882536;28;20209;-67
2021/10/01 04:38:52;;;;;;;9.52;5.65;;;;;;;;;;4887726;28;20362;-68
2021/10/01 04:41:17;;;;;;;8.52;5.60;;;;;;;;;;4896476;28;20030;-68
2021/10/01 04:43:43;;;;;;;9.00;5.45;;;;;;;;;;4879606;28;20052;-68
2021/10/01 04:46:08;;;;;;;8.20;5.45;;;;;;;;;;4883547;28;20036;-68
2021/10/01 04:48:33;;;;;;;12.02;5.43;;;;;;;;;;4882119;28;24604;-67
2021/10/01 04:50:59;;;;;;;9.88;5.57;;;;;;;;;;4881200;28;20404;-68
2021/10/01 04:53:24;;;;;;;8.70;5.07;;;;;;;;;;4881538;28;20633;-70
2021/10/01 04:55:49;;;;;;;8.93;5.27;;;;;;;;;;4882164;28;20108;-67
2021/10/01 04:58:15;;;;;;;10.23;5.33;;;;;;;;;;4876308;28;20375;-67
2021/10/01 05:00:40;;;;;;;9.52;6.00;;;;;;;;;;4878895;28;21875;-66
2021/10/01 05:03:06;;;;;;;10.40;5.10;;;;;;;;;;4880524;28;20030;-69
2021/10/01 05:05:31;;;;;;;11.50;5.30;;;;;;;;;;4880889;28;20037;-68
2021/10/01 05:07:56;;;;;;;9.73;5.38;;;;;;;;;;4883599;28;20038;-67
2021/10/01 05:10:22;;;;;;;10.63;5.22;;;;;;;;;;4882241;28;20737;-66
2021/10/01 05:12:48;;;;;;;10.73;5.57;;;;;;;;;;4885281;28;20184;-69
2021/10/01 05:15:14;;;;;;;12.07;5.53;;;;;;;;;;4879985;28;20029;-68
2021/10/01 05:17:40;;;;;;;10.48;5.10;;;;;;;;;;4877674;28;20855;-67
2021/10/01 05:20:07;;;;;;;11.55;5.70;;;;;;;;;;4882096;28;20890;-67
2021/10/01 05:22:33;;;;;;;11.15;5.78;;;;;;;;;;4883440;28;20716;-67
2021/10/01 05:24:58;;;;;;;12.07;5.07;;;;;;;;;;4881269;28;20531;-67
2021/10/01 05:27:24;;;;;;;13.13;5.82;;;;;;;;;;4884589;28;20490;-66
2021/10/01 05:29:49;;;;;;;12.93;5.75;;;;;;;;;;4887951;28;20826;-67
2021/10/01 05:32:14;;;;;;;10.70;5.60;;;;;;;;;;4882952;28;24238;-66
2021/10/01 05:34:40;;;;;;;9.85;5.50;;;;;;;;;;4878270;28;20281;-66
2021/10/01 05:37:05;;;;;;;9.20;5.25;;;;;;;;;;4886369;28;20404;-66
2021/10/01 05:39:31;;;;;;;9.23;5.30;;;;;;;;;;4883486;28;20840;-66
2021/10/01 05:41:57;;;;;;;9.07;5.38;;;;;;;;;;4901739;28;20034;-66
2021/10/01 05:44:22;;;;;;;13.20;5.70;;;;;;;;;;4888801;28;20053;-66
2021/10/01 05:46:48;;;;;;;8.73;5.20;;;;;;;;;;4887761;28;20610;-66
2021/10/01 05:49:20;;;;;;;13.38;5.80;;;;;;;;;;4879636;28;20272;-67
2021/10/01 05:51:49;;;;;;;12.60;5.28;;;;;;;;;;4889710;28;20036;-67
2021/10/01 05:54:21;;;;;;;13.52;5.97;;;;;;;;;;4888714;28;20041;-67
2021/10/01 05:56:46;;;;;;;11.27;6.38;;;;;;;;;;4884299;28;20125;-66
2021/10/01 05:59:12;;;;;;;12.45;5.90;;;;;;;;;;4889030;28;20030;-66
2021/10/01 06:01:37;;;;;;;11.07;5.90;;;;;;;;;;4883868;28;20038;-66
2021/10/01 06:04:03;;;;;;;9.63;5.80;;;;;;;;;;4888757;28;20591;-69
2021/10/01 06:06:28;;;;;;;11.95;5.75;;;;;;;;;;4875223;28;20299;-66
2021/10/01 06:08:54;;;;;;;10.00;5.87;;;;;;;;;;4886128;28;20757;-68
2021/10/01 06:11:19;;;;;;;11.38;5.50;;;;;;;;;;4887180;28;21050;-69
2021/10/01 06:13:44;;;;;;;10.20;5.70;;;;;;;;;;4884608;28;20088;-66
2021/10/01 06:16:10;;;;;;;13.95;6.55;;;;;;;;;;4883176;28;20771;-66
2021/10/01 06:18:35;;;;;;;14.48;6.03;;;;;;;;;;4880344;28;20700;-66
2021/10/01 06:21:01;;;;;;;11.95;6.03;;;;;;;;;;4887109;28;20473;-66
2021/10/01 06:23:33;;;;;;;14.48;6.43;;;;;;;;;;4881914;28;20582;-66
2021/10/01 06:25:59;;;;;;;11.43;6.00;;;;;;;;;;4885800;28;20441;-66
2021/10/01 06:28:24;;;;;;;11.23;6.18;;;;;;;;;;4885248;28;20886;-65
2021/10/01 06:30:49;;;;;;;12.37;6.83;;;;;;;;;;4885702;28;20872;-66
2021/10/01 06:33:15;;;;;;;10.25;6.40;;;;;;;;;;4886984;28;20037;-65
2021/10/01 06:35:41;;;;;;;13.13;6.65;;;;;;;;;;4884973;28;20144;-65
2021/10/01 06:38:06;;;;;;;11.98;6.38;;;;;;;;;;4894146;28;20056;-66
2021/10/01 06:40:31;;;;;;;14.13;6.72;;;;;;;;;;4890188;28;24252;-65
2021/10/01 06:42:57;;;;;;;12.32;7.30;;;;;;;;;;4893079;28;20140;-66
2021/10/01 06:45:26;;;;;;;12.65;6.75;;;;;;;;;;4893698;28;20135;-66
2021/10/01 06:48:11;;;;;;;10.57;6.72;;;;;;;;;;4888415;28;20033;-66
2021/10/01 08:20:23;;;;;;;6.55;2.50;;;;;;;;;;4887568;28;20316;-67
2021/10/01 08:22:49;;;;;;;5.53;2.50;;;;;;;;;;4889166;28;20022;-66
2021/10/01 08:25:14;;;;;;;7.10;3.00;;;;;;;;;;4887107;28;20417;-66
2021/10/01 08:27:40;;;;;;;5.37;2.53;;;;;;;;;;4887194;28;21984;-64
2021/10/01 08:30:07;;;;;;;6.82;2.65;;;;;;;;;;4881273;28;20482;-66
2021/10/01 08:32:32;;;;;;;7.30;2.60;;;;;;;;;;4884766;28;20701;-67
2021/10/01 08:34:57;;;;;;;5.93;2.50;;;;;;;;;;4883194;28;24448;-67
2021/10/01 08:37:23;;;;;;;6.22;2.38;;;;;;;;;;4886727;28;20572;-67
2021/10/01 08:39:48;;;;;;;7.38;2.45;;;;;;;;;;4890333;28;20345;-66
2021/10/01 08:42:13;;;;;;;5.72;2.55;;;;;;;;;;4892772;28;20670;-66
2021/10/01 08:44:39;;;;;;;5.65;2.03;;;;;;;;;;4892947;28;20188;-67
2021/10/01 08:47:05;;;;;;;7.00;2.38;;;;;;;;;;4892417;28;20069;-65
2021/10/01 08:49:31;;;;;;;5.50;2.33;;;;;;;;;;4909044;28;20421;-66
2021/10/01 08:51:56;;;;;;;6.22;2.60;;;;;;;;;;4894340;28;20072;-67
2021/10/01 08:54:23;;;;;;;6.35;2.45;;;;;;;;;;4885321;28;23434;-67
2021/10/01 08:56:48;;;;;;;5.50;2.35;;;;;;;;;;4889661;28;20365;-69
2021/10/01 08:59:13;;;;;;;7.40;2.30;;;;;;;;;;4892326;28;20199;-64
2021/10/01 09:01:39;;;;;;;8.52;2.55;;;;;;;;;;4892847;28;20497;-67
2021/10/01 09:04:06;;;;;;;5.63;2.40;;;;;;;;;;4887891;28;20037;-63
2021/10/01 09:06:32;;;;;;;6.38;2.35;;;;;;;;;;4887915;28;20037;-62
2021/10/01 09:09:00;;;;;;;6.40;2.55;;;;;;;;;;4901832;28;20030;-61
2021/10/01 09:11:38;;;;;;;6.20;2.50;;;;;;;;;;4888445;28;20464;-62
2021/10/01 09:14:05;;;;;;;8.70;2.90;;;;;;;;;;4905281;28;20038;-64
2021/10/01 09:16:30;;;;;;;5.65;2.40;;;;;;;;;;4892869;28;20385;-61
2021/10/01 09:18:55;;;;;;;5.88;2.50;;;;;;;;;;4886794;28;21612;-63
2021/10/01 09:21:22;;;;;;;6.83;2.40;;;;;;;;;;4888078;28;21597;-62
2021/10/01 09:23:55;;;;;;;5.20;2.45;;;;;;;;;;4890853;28;20489;-63
2021/10/01 09:26:22;;;;;;;5.88;2.33;;;;;;;;;;4891536;28;20314;-63
2021/10/01 09:28:50;;;;;;;5.72;2.70;;;;;;;;;;4886646;28;20420;-63
2021/10/01 09:31:32;;;;;;;7.97;2.70;;;;;;;;;;4893126;28;20551;-61
2021/10/01 09:33:58;;;;;;;5.20;2.53;;;;;;;;;;4885726;28;21662;-63
2021/10/01 09:36:25;;;;;;;6.13;2.58;;;;;;;;;;4902837;28;20133;-63
2021/10/01 09:38:51;;;;;;;6.88;2.55;;;;;;;;;;4888609;28;20106;-62
2021/10/01 09:41:22;;;;;;;9.90;3.53;;;;;;;;;;4893191;28;20615;-64
2021/10/01 09:43:56;;;;;;;7.57;3.30;;;;;;;;;;4896898;28;20052;-62
2021/10/01 09:46:21;;;;;;;6.47;3.00;;;;;;;;;;4888016;28;20895;-63
2021/10/01 09:48:47;;;;;;;8.90;3.00;;;;;;;;;;4894656;28;20022;-63
2021/10/01 09:51:17;;;;;;;5.88;2.70;;;;;;;;;;4894280;28;20609;-63
2021/10/01 09:53:47;;;;;;;6.90;2.90;;;;;;;;;;4891625;28;20477;-63
2021/10/01 09:56:26;;;;;;;6.07;2.83;;;;;;;;;;4896422;28;20891;-63
2021/10/01 09:59:05;;;;;;;6.90;2.90;;;;;;;;;;4890838;28;20061;-63
2021/10/01 10:01:31;;;;;;;6.97;2.42;;;;;;;;;;4892519;28;20258;-62
2021/10/01 10:03:56;;;;;;;6.40;2.80;;;;;;;;;;4897469;28;20033;-61
2021/10/01 10:06:21;;;;;;;6.78;2.83;;;;;;;;;;4893793;28;20191;-62
2021/10/01 10:08:47;;;;;;;5.47;2.60;;;;;;;;;;4896557;28;20034;-63
2021/10/01 10:11:14;;;;;;;6.25;2.47;;;;;;;;;;4889733;28;20253;-62
2021/10/01 10:13:43;;;;;;;6.78;2.50;;;;;;;;;;4901583;28;21768;-62
2021/10/01 10:16:19;;;;;;;7.00;3.42;;;;;;;;;;4897635;28;20492;-63
2021/10/01 10:18:46;;;;;;;7.15;2.83;;;;;;;;;;4888975;28;20055;-62
2021/10/01 10:21:11;;;;;;;6.63;2.85;;;;;;;;;;4890438;28;20514;-62
2021/10/01 10:23:36;;;;;;;5.47;2.60;;;;;;;;;;4891182;28;20885;-63
2021/10/01 10:26:02;;;;;;;6.05;3.10;;;;;;;;;;4892378;28;20409;-62
2021/10/01 10:28:28;;;;;;;6.28;3.00;;;;;;;;;;4892755;28;20018;-64
2021/10/01 10:30:53;;;;;;;6.78;2.80;;;;;;;;;;4893576;28;20029;-63
2021/10/01 10:33:39;;;;;;;8.00;2.92;;;;;;;;;;4894943;28;20022;-62
2021/10/01 10:36:24;;;;;;;6.03;2.92;;;;;;;;;;4892237;28;20396;-61
2021/10/01 10:38:50;;;;;;;5.20;2.47;;;;;;;;;;4876893;28;20624;-63
2021/10/01 10:41:41;;;;;;;7.20;3.07;;;;;;;;;;4889335;28;20521;-63
2021/10/01 10:44:06;;;;;;;8.30;2.78;;;;;;;;;;4894661;28;21362;-63
2021/10/01 10:46:32;;;;;;;7.30;3.13;;;;;;;;;;4872870;28;20747;-63
2021/10/01 10:49:22;;;;;;;6.87;2.90;;;;;;;;;;4872608;28;20137;-62
2021/10/01 10:52:06;;;;;;;6.93;2.78;;;;;;;;;;4883717;28;20630;-63
2021/10/01 10:54:33;;;;;;;5.97;2.75;;;;;;;;;;4867614;28;20038;-63
2021/10/01 10:57:17;;;;;;;6.10;2.90;;;;;;;;;;4873919;28;20034;-63
2021/10/01 10:59:43;;;;;;;6.43;2.70;;;;;;;;;;4873460;28;20025;-63
2021/10/01 11:02:30;;;;;;;6.07;2.40;;;;;;;;;;4869646;28;20033;-63
2021/10/01 11:05:14;;;;;;;5.75;2.50;;;;;;;;;;4881743;28;20968;-64
2021/10/01 11:08:01;;;;;;;6.55;2.55;;;;;;;;;;4869959;28;20038;-62
2021/10/01 11:10:36;;;;;;;6.80;2.55;;;;;;;;;;4869580;28;20156;-63
2021/10/01 11:13:21;;;;;;;7.00;2.75;;;;;;;;;;4867678;28;20380;-64
2021/10/01 11:16:05;;;;;;;5.95;2.70;;;;;;;;;;4868756;28;20551;-62
2021/10/01 11:18:30;;;;;;;5.78;2.83;;;;;;;;;;4869135;28;20045;-62
2021/10/01 11:20:56;;;;;;;6.60;3.17;;;;;;;;;;4866721;28;20030;-61
2021/10/01 11:23:21;;;;;;;5.90;2.90;;;;;;;;;;4873464;28;20030;-62
2021/10/01 11:25:47;;;;;;;6.60;2.93;;;;;;;;;;4885017;28;20293;-62
2021/10/01 11:28:12;;;;;;;5.40;2.60;;;;;;;;;;4870050;28;20268;-60
2021/10/01 11:30:38;;;;;;;6.00;2.88;;;;;;;;;;4873512;28;20271;-58
2021/10/01 11:33:11;;;;;;;6.40;2.88;;;;;;;;;;4867422;28;20041;-56
2021/10/01 11:35:45;;;;;;;6.20;2.90;;;;;;;;;;4868480;28;20493;-57
2021/10/01 11:38:18;;;;;;;5.18;2.45;;;;;;;;;;4869590;28;20936;-57
2021/10/01 11:40:43;;;;;;;5.82;2.65;;;;;;;;;;4871698;28;20022;-58
2021/10/01 11:43:09;;;;;;;6.47;2.83;;;;;;;;;;4868927;28;20397;-58
2021/10/01 11:45:35;;;;;;;6.20;2.53;;;;;;;;;;4868062;28;20053;-58
2021/10/01 11:48:02;;;;;;;5.75;2.65;;;;;;;;;;4869985;28;20571;-60
2021/10/01 11:50:30;;;;;;;5.65;2.50;;;;;;;;;;4864504;28;20955;-58
2021/10/01 11:52:58;;;;;;;6.00;2.70;;;;;;;;;;4866835;28;20561;-58
2021/10/01 11:55:25;;;;;;;6.10;2.80;;;;;;;;;;4870151;28;20745;-58
2021/10/01 11:57:50;;;;;;;5.65;2.67;;;;;;;;;;4865765;28;20097;-57
2021/10/01 12:00:22;;;;;;;6.50;2.73;;;;;;;;;;4869504;28;22895;-59
2021/10/01 12:02:49;;;;;;;5.75;2.50;;;;;;;;;;4871556;28;20849;-58
2021/10/01 12:05:22;;;;;;;7.53;2.88;;;;;;;;;;4865532;28;20614;-58
2021/10/01 12:07:48;;;;;;;7.47;3.08;;;;;;;;;;4868684;28;20330;-59
2021/10/01 12:10:14;;;;;;;6.47;2.80;;;;;;;;;;4870079;28;20961;-58
2021/10/01 12:12:58;;;;;;;7.15;2.97;;;;;;;;;;4868123;28;20026;-58
2021/10/01 12:15:34;;;;;;;6.25;2.72;;;;;;;;;;4868922;28;20026;-58
2021/10/01 12:17:59;;;;;;;8.07;2.80;;;;;;;;;;4869573;28;20980;-58
2021/10/01 12:20:24;;;;;;;5.63;3.00;;;;;;;;;;4867133;28;20029;-59
2021/10/01 12:22:49;;;;;;;6.97;3.28;;;;;;;;;;4869969;28;20066;-58
2021/10/01 12:25:22;;;;;;;6.15;2.75;;;;;;;;;;4867184;28;20124;-58
2021/10/01 12:27:49;;;;;;;5.90;2.83;;;;;;;;;;4866803;28;20033;-59
2021/10/01 12:30:15;;;;;;;6.05;3.08;;;;;;;;;;4869367;28;20040;-58
2021/10/01 12:32:40;;;;;;;5.63;3.00;;;;;;;;;;4868434;28;20295;-57
2021/10/01 12:35:06;;;;;;;6.05;2.90;;;;;;;;;;4864164;28;20382;-58
2021/10/01 12:37:39;;;;;;;7.78;3.10;;;;;;;;;;4866894;28;20715;-58
2021/10/01 12:40:05;;;;;;;6.03;2.60;;;;;;;;;;4868910;28;21685;-58
2021/10/01 12:42:35;;;;;;;5.57;2.90;;;;;;;;;;4865881;28;21615;-61
2021/10/01 12:45:04;;;;;;;5.95;2.90;;;;;;;;;;4866902;28;20034;-62
2021/10/01 12:47:32;;;;;;;6.18;2.53;;;;;;;;;;4869478;28;20065;-61
2021/10/01 12:50:00;;;;;;;7.43;2.83;;;;;;;;;;4864291;28;24292;-61
2021/10/01 12:52:26;;;;;;;5.38;2.33;;;;;;;;;;4866418;28;21200;-60
2021/10/01 12:55:12;;;;;;;5.25;2.65;;;;;;;;;;4865443;28;20037;-61
2021/10/01 12:57:37;;;;;;;5.72;2.58;;;;;;;;;;4883396;28;20034;-58
2021/10/01 13:00:02;;;;;;;9.20;2.80;;;;;;;;;;4868859;28;24485;-61
2021/10/01 13:02:40;;;;;;;6.83;2.80;;;;;;;;;;4870754;28;20046;-61
2021/10/01 13:05:07;;;;;;;6.63;2.55;;;;;;;;;;4863796;28;20088;-61
2021/10/01 13:07:32;;;;;;;5.22;2.53;;;;;;;;;;4867162;28;20441;-60
2021/10/01 13:09:59;;;;;;;7.57;2.87;;;;;;;;;;4868531;28;20369;-61
2021/10/01 13:12:26;;;;;;;10.93;2.80;;;;;;;;;;4869392;28;20504;-61
2021/10/01 13:15:06;;;;;;;6.13;2.83;;;;;;;;;;4869913;28;20187;-61
2021/10/01 13:17:31;;;;;;;5.60;2.40;;;;;;;;;;4872301;28;23561;-60
2021/10/01 13:19:57;;;;;;;7.47;2.77;;;;;;;;;;4866262;28;20574;-60
2021/10/01 13:22:22;;;;;;;5.93;2.70;;;;;;;;;;4888077;28;20236;-60
2021/10/01 13:24:54;;;;;;;5.33;2.50;;;;;;;;;;4873659;28;20897;-60
2021/10/01 13:27:19;;;;;;;6.05;2.53;;;;;;;;;;4872007;28;20260;-60
2021/10/01 13:29:44;;;;;;;5.50;2.43;;;;;;;;;;4869703;28;20131;-60
2021/10/01 13:32:10;;;;;;;5.82;2.50;;;;;;;;;;4872456;28;20392;-61
2021/10/01 13:34:35;;;;;;;5.30;2.37;;;;;;;;;;4871161;28;20030;-61
2021/10/01 13:37:00;;;;;;;5.73;2.50;;;;;;;;;;4870585;28;20264;-60
2021/10/01 13:39:25;;;;;;;6.03;2.37;;;;;;;;;;4872436;28;20267;-61
2021/10/01 13:41:50;;;;;;;5.90;2.70;;;;;;;;;;4869513;28;20793;-61
2021/10/01 13:44:16;;;;;;;5.80;2.20;;;;;;;;;;4873316;28;21086;-61
2021/10/01 13:46:41;;;;;;;6.45;2.40;;;;;;;;;;4868719;28;20736;-61
2021/10/01 13:49:06;;;;;;;5.40;2.40;;;;;;;;;;4871055;28;20034;-61
2021/10/01 13:51:32;;;;;;;6.95;2.95;;;;;;;;;;4867844;28;20176;-61
2021/10/01 13:53:57;;;;;;;5.28;2.38;;;;;;;;;;4870974;28;20998;-61
2021/10/01 13:56:22;;;;;;;5.10;2.35;;;;;;;;;;4869301;28;20614;-60
2021/10/01 13:58:48;;;;;;;5.73;2.17;;;;;;;;;;4869430;28;20149;-61
2021/10/01 14:01:14;;;;;;;6.65;2.50;;;;;;;;;;4871921;28;20257;-62
2021/10/01 14:03:39;;;;;;;7.22;2.35;;;;;;;;;;4870780;28;20029;-61
2021/10/01 14:06:04;;;;;;;6.50;2.50;;;;;;;;;;4871253;28;20880;-61
2021/10/01 14:08:30;;;;;;;6.80;2.65;;;;;;;;;;4870234;28;20472;-62
2021/10/01 14:10:55;;;;;;;8.77;2.45;;;;;;;;;;4870755;28;20022;-60
2021/10/01 14:13:20;;;;;;;5.55;2.28;;;;;;;;;;4869180;28;21510;-60
2021/10/01 14:15:47;;;;;;;7.10;2.50;;;;;;;;;;4867843;28;20022;-61
2021/10/01 14:18:13;;;;;;;8.68;3.13;;;;;;;;;;4870120;28;20048;-60
2021/10/01 14:20:38;;;;;;;6.60;2.45;;;;;;;;;;4870180;28;21502;-60
2021/10/01 14:23:04;;;;;;;4.90;2.20;;;;;;;;;;4871097;28;20034;-61
2021/10/01 14:25:30;;;;;;;7.03;2.42;;;;;;;;;;4868605;28;20443;-60
2021/10/01 14:27:59;;;;;;;5.07;2.35;;;;;;;;;;4860859;28;20569;-60
2021/10/01 14:30:26;;;;;;;5.60;2.38;;;;;;;;;;4861684;28;20022;-61
2021/10/01 14:32:52;;;;;;;5.63;2.22;;;;;;;;;;4863776;28;20665;-62
2021/10/01 14:35:18;;;;;;;4.93;1.95;;;;;;;;;;4868691;28;20053;-61
2021/10/01 14:37:43;;;;;;;6.03;2.25;;;;;;;;;;4866949;28;20636;-62
2021/10/01 14:40:09;;;;;;;5.85;2.30;;;;;;;;;;4882295;28;20479;-62
2021/10/01 14:42:35;;;;;;;5.20;2.10;;;;;;;;;;4868591;28;20935;-62
2021/10/01 14:45:00;;;;;;;5.00;1.90;;;;;;;;;;4870137;28;20290;-62
2021/10/01 14:47:30;;;;;;;6.10;2.30;;;;;;;;;;4869410;28;20706;-62
2021/10/01 14:49:55;;;;;;;;;;;;;;;;;;4856343;28;20030;-60
2021/10/01 14:52:21;;;;;;;9.85;2.45;;;;;;;;;;4860432;28;20006;-62
2021/10/01 14:54:46;;;;;;;6.30;2.30;;;;;;;;;;4869006;28;20030;-61
2021/10/01 14:57:12;;;;;;;6.33;2.33;;;;;;;;;;4862296;28;20645;-62
2021/10/01 14:59:37;;;;;;;5.57;2.30;;;;;;;;;;4870901;28;20438;-61
2021/10/01 15:02:02;;;;;;;5.60;2.40;;;;;;;;;;4872527;28;20285;-60
2021/10/01 15:04:27;;;;;;;6.55;2.40;;;;;;;;;;4866963;28;21734;-61
2021/10/01 15:06:53;;;;;;;6.20;2.43;;;;;;;;;;4866075;28;20044;-62
2021/10/01 15:09:18;;;;;;;5.13;2.20;;;;;;;;;;4861316;28;20038;-61
2021/10/01 15:11:43;;;;;;;5.22;2.10;;;;;;;;;;4864438;28;20029;-61
2021/10/01 15:14:08;;;;;;;7.03;2.30;;;;;;;;;;4865787;28;21269;-62
2021/10/01 15:16:34;;;;;;;5.80;2.40;;;;;;;;;;4860012;28;20658;-61
2021/10/01 15:18:59;;;;;;;4.40;2.10;;;;;;;;;;4863397;28;20356;-59
2021/10/01 15:21:25;;;;;;;5.28;1.92;;;;;;;;;;4855666;28;20864;-59
2021/10/01 15:23:50;;;;;;;5.43;2.17;;;;;;;;;;4852030;28;20396;-57
2021/10/01 15:26:16;;;;;;;6.25;2.00;;;;;;;;;;4858080;28;20040;-59
2021/10/01 15:28:42;;;;;;;4.75;1.80;;;;;;;;;;4861041;28;20922;-60
2021/10/01 15:31:07;;;;;;;5.05;1.52;;;;;;;;;;4863113;28;20358;-59
2021/10/01 15:33:33;;;;;;;4.80;2.03;;;;;;;;;;4858706;28;24320;-59
2021/10/01 15:35:58;;;;;;;4.93;1.90;;;;;;;;;;4860282;28;20034;-60
2021/10/01 15:38:25;;;;;;;4.22;1.90;;;;;;;;;;4860740;28;21025;-59
2021/10/01 15:40:51;;;;;;;4.90;1.90;;;;;;;;;;4868252;28;20028;-59
2021/10/01 15:43:16;;;;;;;4.60;1.90;;;;;;;;;;4868621;28;20230;-57
2021/10/01 15:45:43;;;;;;;4.97;2.13;;;;;;;;;;4861541;28;20667;-58
2021/10/01 15:48:08;;;;;;;6.85;2.20;;;;;;;;;;4869145;28;20017;-58
2021/10/01 15:50:34;;;;;;;4.53;1.88;;;;;;;;;;4866617;28;20741;-58
2021/10/01 15:53:00;;;;;;;4.95;2.05;;;;;;;;;;4857560;28;20152;-57
2021/10/01 15:55:25;;;;;;;4.82;1.75;;;;;;;;;;4864594;28;20112;-57
2021/10/01 15:57:50;;;;;;;4.30;1.70;;;;;;;;;;4868589;28;20789;-57
2021/10/01 16:00:17;;;;;;;5.65;1.88;;;;;;;;;;4869849;28;20034;-57
2021/10/01 16:02:42;;;;;;;5.65;2.22;;;;;;;;;;4870065;28;20887;-57
2021/10/01 16:05:09;;;;;;;6.57;2.17;;;;;;;;;;4862097;28;20045;-58
2021/10/01 16:07:35;;;;;;;6.20;2.25;;;;;;;;;;4863209;28;20676;-58
2021/10/01 16:10:00;;;;;;;5.65;2.20;;;;;;;;;;4880602;28;20112;-58
2021/10/01 16:12:26;;;;;;;5.07;2.35;;;;;;;;;;4858342;28;21591;-59